Terminal Aerodrome Forecast
Issued by NWS Brownsville, TX

Home | Current Version | Previous Version | Text Only | Print | Product List | Glossary On
Versions: 1 2 3 4 5 6 7 8 9 10 11 12 13 14 15 16 17 18 19 20 21 22 23 24 25 26 27 28 29 30
302
FTUS44 KBRO 040537
TAFMFE
TAF
KMFE 040537Z 0406/0506 04008KT P6SM OVC009
     FM041200 36005KT 4SM BR OVC007
      TEMPO 0412/0415 4SM -DZ OVC007
     FM041500 33007KT 4SM HZ BR OVC007
      TEMPO 0415/0418 5SM -RA OVC007
     FM042100 34008KT P6SM OVC007=

USA.gov is the U.S. government's official web portal to all federal, state and local government web resources and services.